sensor_id;sensor_type;location;lat;lon;timestamp;P1;durP1;ratioP1;P2;durP2;ratioP2
11384;SDS011;5747;56.748;13.882;2024-01-06T00:00:03;2.60;;;1.27;;
11384;SDS011;5747;56.748;13.882;2024-01-06T00:02:37;2.77;;;1.43;;
11384;SDS011;5747;56.748;13.882;2024-01-06T00:05:05;2.77;;;1.50;;
11384;SDS011;5747;56.748;13.882;2024-01-06T00:07:34;1.50;;;1.00;;
11384;SDS011;5747;56.748;13.882;2024-01-06T00:10:02;2.47;;;1.30;;
11384;SDS011;5747;56.748;13.882;2024-01-06T00:12:30;2.60;;;1.37;;
11384;SDS011;5747;56.748;13.882;2024-01-06T00:14:58;1.93;;;1.23;;
11384;SDS011;5747;56.748;13.882;2024-01-06T00:17:28;2.67;;;1.50;;
11384;SDS011;5747;56.748;13.882;2024-01-06T00:19:56;2.80;;;1.87;;
11384;SDS011;5747;56.748;13.882;2024-01-06T00:22:26;2.03;;;1.50;;
11384;SDS011;5747;56.748;13.882;2024-01-06T00:24:55;3.20;;;1.40;;
11384;SDS011;5747;56.748;13.882;2024-01-06T00:27:23;3.53;;;1.27;;
11384;SDS011;5747;56.748;13.882;2024-01-06T00:29:51;2.03;;;1.03;;
11384;SDS011;5747;56.748;13.882;2024-01-06T00:32:19;2.33;;;1.40;;
11384;SDS011;5747;56.748;13.882;2024-01-06T00:34:48;2.13;;;1.37;;
11384;SDS011;5747;56.748;13.882;2024-01-06T00:37:16;3.93;;;1.70;;
11384;SDS011;5747;56.748;13.882;2024-01-06T00:39:45;2.83;;;1.93;;
11384;SDS011;5747;56.748;13.882;2024-01-06T00:42:13;3.00;;;1.67;;
11384;SDS011;5747;56.748;13.882;2024-01-06T00:44:41;4.10;;;1.60;;
11384;SDS011;5747;56.748;13.882;2024-01-06T00:47:11;3.93;;;1.90;;
11384;SDS011;5747;56.748;13.882;2024-01-06T00:49:39;3.70;;;1.40;;
11384;SDS011;5747;56.748;13.882;2024-01-06T00:52:09;3.45;;;1.77;;
11384;SDS011;5747;56.748;13.882;2024-01-06T00:54:37;2.20;;;1.53;;
11384;SDS011;5747;56.748;13.882;2024-01-06T00:57:06;1.07;;;0.97;;
11384;SDS011;5747;56.748;13.882;2024-01-06T00:59:34;1.83;;;1.07;;
11384;SDS011;5747;56.748;13.882;2024-01-06T01:02:02;1.67;;;0.90;;
11384;SDS011;5747;56.748;13.882;2024-01-06T01:04:30;2.73;;;1.70;;
11384;SDS011;5747;56.748;13.882;2024-01-06T01:06:58;1.13;;;1.03;;
11384;SDS011;5747;56.748;13.882;2024-01-06T01:09:28;4.00;;;1.63;;
11384;SDS011;5747;56.748;13.882;2024-01-06T01:11:56;4.40;;;1.60;;
11384;SDS011;5747;56.748;13.882;2024-01-06T01:14:24;1.93;;;1.13;;
11384;SDS011;5747;56.748;13.882;2024-01-06T01:16:52;1.60;;;1.17;;
11384;SDS011;5747;56.748;13.882;2024-01-06T01:19:20;2.90;;;1.30;;
11384;SDS011;5747;56.748;13.882;2024-01-06T01:21:47;2.37;;;1.37;;
11384;SDS011;5747;56.748;13.882;2024-01-06T01:24:16;4.40;;;1.20;;
11384;SDS011;5747;56.748;13.882;2024-01-06T01:26:45;2.17;;;1.67;;
11384;SDS011;5747;56.748;13.882;2024-01-06T01:29:13;1.93;;;1.47;;
11384;SDS011;5747;56.748;13.882;2024-01-06T01:31:41;3.30;;;1.63;;
11384;SDS011;5747;56.748;13.882;2024-01-06T01:34:10;2.60;;;1.50;;
11384;SDS011;5747;56.748;13.882;2024-01-06T01:36:38;2.03;;;1.07;;
11384;SDS011;5747;56.748;13.882;2024-01-06T01:39:06;2.13;;;1.40;;
11384;SDS011;5747;56.748;13.882;2024-01-06T01:41:34;2.23;;;1.30;;
11384;SDS011;5747;56.748;13.882;2024-01-06T01:44:04;2.23;;;1.13;;
11384;SDS011;5747;56.748;13.882;2024-01-06T01:46:32;0.97;;;0.43;;
11384;SDS011;5747;56.748;13.882;2024-01-06T01:49:01;0.63;;;0.37;;
11384;SDS011;5747;56.748;13.882;2024-01-06T01:51:31;1.53;;;1.20;;
11384;SDS011;5747;56.748;13.882;2024-01-06T01:54:01;1.90;;;1.00;;
11384;SDS011;5747;56.748;13.882;2024-01-06T01:56:31;0.60;;;0.60;;
11384;SDS011;5747;56.748;13.882;2024-01-06T01:59:00;1.27;;;1.17;;
11384;SDS011;5747;56.748;13.882;2024-01-06T02:01:34;1.03;;;0.93;;
11384;SDS011;5747;56.748;13.882;2024-01-06T02:04:02;1.00;;;0.90;;
11384;SDS011;5747;56.748;13.882;2024-01-06T02:06:30;3.20;;;1.33;;
11384;SDS011;5747;56.748;13.882;2024-01-06T02:08:58;1.40;;;0.70;;
11384;SDS011;5747;56.748;13.882;2024-01-06T02:11:27;2.20;;;1.43;;
11384;SDS011;5747;56.748;13.882;2024-01-06T02:13:55;2.80;;;1.17;;
11384;SDS011;5747;56.748;13.882;2024-01-06T02:16:23;1.00;;;0.77;;
11384;SDS011;5747;56.748;13.882;2024-01-06T02:18:52;3.70;;;0.77;;
11384;SDS011;5747;56.748;13.882;2024-01-06T02:21:21;1.27;;;1.17;;
11384;SDS011;5747;56.748;13.882;2024-01-06T02:23:51;3.73;;;1.20;;
11384;SDS011;5747;56.748;13.882;2024-01-06T02:26:19;2.10;;;1.53;;
11384;SDS011;5747;56.748;13.882;2024-01-06T02:28:47;2.13;;;1.30;;
11384;SDS011;5747;56.748;13.882;2024-01-06T02:31:15;1.23;;;0.60;;
11384;SDS011;5747;56.748;13.882;2024-01-06T02:33:44;0.40;;;0.40;;
11384;SDS011;5747;56.748;13.882;2024-01-06T02:36:12;0.93;;;0.70;;
11384;SDS011;5747;56.748;13.882;2024-01-06T02:38:40;1.57;;;0.47;;
11384;SDS011;5747;56.748;13.882;2024-01-06T02:41:09;0.60;;;0.60;;
11384;SDS011;5747;56.748;13.882;2024-01-06T02:43:38;1.30;;;0.73;;
11384;SDS011;5747;56.748;13.882;2024-01-06T02:46:06;0.80;;;0.80;;
11384;SDS011;5747;56.748;13.882;2024-01-06T02:48:34;3.40;;;1.07;;
11384;SDS011;5747;56.748;13.882;2024-01-06T02:51:03;1.07;;;0.77;;
11384;SDS011;5747;56.748;13.882;2024-01-06T02:53:32;1.17;;;1.07;;
11384;SDS011;5747;56.748;13.882;2024-01-06T02:56:00;2.40;;;1.57;;
11384;SDS011;5747;56.748;13.882;2024-01-06T02:58:29;0.70;;;0.70;;
11384;SDS011;5747;56.748;13.882;2024-01-06T03:00:57;1.57;;;1.20;;
11384;SDS011;5747;56.748;13.882;2024-01-06T03:03:26;1.33;;;0.57;;
11384;SDS011;5747;56.748;13.882;2024-01-06T03:05:54;0.77;;;0.67;;
11384;SDS011;5747;56.748;13.882;2024-01-06T03:08:22;1.33;;;1.07;;
11384;SDS011;5747;56.748;13.882;2024-01-06T03:10:51;1.40;;;1.00;;
11384;SDS011;5747;56.748;13.882;2024-01-06T03:13:19;0.83;;;0.63;;
11384;SDS011;5747;56.748;13.882;2024-01-06T03:15:48;1.60;;;0.70;;
11384;SDS011;5747;56.748;13.882;2024-01-06T03:18:16;0.67;;;0.67;;
11384;SDS011;5747;56.748;13.882;2024-01-06T03:20:45;0.77;;;0.33;;
11384;SDS011;5747;56.748;13.882;2024-01-06T03:23:13;0.50;;;0.50;;
11384;SDS011;5747;56.748;13.882;2024-01-06T03:25:41;0.70;;;0.70;;
11384;SDS011;5747;56.748;13.882;2024-01-06T03:28:09;1.70;;;1.53;;
11384;SDS011;5747;56.748;13.882;2024-01-06T03:30:37;0.83;;;0.30;;
11384;SDS011;5747;56.748;13.882;2024-01-06T03:33:07;0.40;;;0.30;;
11384;SDS011;5747;56.748;13.882;2024-01-06T03:35:35;0.43;;;0.27;;
11384;SDS011;5747;56.748;13.882;2024-01-06T03:38:03;0.57;;;0.43;;
11384;SDS011;5747;56.748;13.882;2024-01-06T03:40:31;0.30;;;0.23;;
11384;SDS011;5747;56.748;13.882;2024-01-06T03:42:59;0.50;;;0.50;;
11384;SDS011;5747;56.748;13.882;2024-01-06T03:45:27;1.43;;;1.23;;
11384;SDS011;5747;56.748;13.882;2024-01-06T03:47:56;2.17;;;1.67;;
11384;SDS011;5747;56.748;13.882;2024-01-06T03:50:25;0.90;;;0.77;;
11384;SDS011;5747;56.748;13.882;2024-01-06T03:52:53;0.40;;;0.30;;
11384;SDS011;5747;56.748;13.882;2024-01-06T03:55:21;0.43;;;0.37;;
11384;SDS011;5747;56.748;13.882;2024-01-06T03:57:50;0.17;;;0.17;;
11384;SDS011;5747;56.748;13.882;2024-01-06T04:00:18;0.50;;;0.40;;
11384;SDS011;5747;56.748;13.882;2024-01-06T04:02:46;0.87;;;0.80;;
11384;SDS011;5747;56.748;13.882;2024-01-06T04:05:14;0.63;;;0.50;;
11384;SDS011;5747;56.748;13.882;2024-01-06T04:07:44;1.13;;;0.63;;
11384;SDS011;5747;56.748;13.882;2024-01-06T04:10:12;0.53;;;0.40;;
11384;SDS011;5747;56.748;13.882;2024-01-06T04:12:40;1.63;;;1.07;;
11384;SDS011;5747;56.748;13.882;2024-01-06T04:15:08;9.10;;;1.40;;
11384;SDS011;5747;56.748;13.882;2024-01-06T04:17:36;1.20;;;0.40;;
11384;SDS011;5747;56.748;13.882;2024-01-06T04:20:05;1.77;;;1.60;;
11384;SDS011;5747;56.748;13.882;2024-01-06T04:22:34;0.57;;;0.57;;
11384;SDS011;5747;56.748;13.882;2024-01-06T04:25:04;2.37;;;1.27;;
11384;SDS011;5747;56.748;13.882;2024-01-06T04:27:32;0.93;;;0.93;;
11384;SDS011;5747;56.748;13.882;2024-01-06T04:30:01;0.40;;;0.40;;
11384;SDS011;5747;56.748;13.882;2024-01-06T04:32:30;2.43;;;0.90;;
11384;SDS011;5747;56.748;13.882;2024-01-06T04:34:58;0.30;;;0.30;;
11384;SDS011;5747;56.748;13.882;2024-01-06T04:37:26;0.23;;;0.23;;
11384;SDS011;5747;56.748;13.882;2024-01-06T04:39:54;0.33;;;0.33;;
11384;SDS011;5747;56.748;13.882;2024-01-06T04:42:24;0.40;;;0.40;;
11384;SDS011;5747;56.748;13.882;2024-01-06T04:44:53;0.10;;;0.10;;
11384;SDS011;5747;56.748;13.882;2024-01-06T04:47:21;0.93;;;0.37;;
11384;SDS011;5747;56.748;13.882;2024-01-06T04:49:49;0.33;;;0.33;;
11384;SDS011;5747;56.748;13.882;2024-01-06T04:52:17;2.27;;;0.63;;
11384;SDS011;5747;56.748;13.882;2024-01-06T04:54:45;0.90;;;0.73;;
11384;SDS011;5747;56.748;13.882;2024-01-06T04:57:14;1.33;;;0.43;;
11384;SDS011;5747;56.748;13.882;2024-01-06T04:59:43;1.37;;;1.27;;
11384;SDS011;5747;56.748;13.882;2024-01-06T05:02:11;1.50;;;0.93;;
11384;SDS011;5747;56.748;13.882;2024-01-06T05:04:40;2.53;;;1.00;;
11384;SDS011;5747;56.748;13.882;2024-01-06T05:07:08;2.00;;;1.50;;
11384;SDS011;5747;56.748;13.882;2024-01-06T05:09:36;0.97;;;0.60;;
11384;SDS011;5747;56.748;13.882;2024-01-06T05:12:04;2.13;;;1.10;;
11384;SDS011;5747;56.748;13.882;2024-01-06T05:14:33;1.07;;;0.67;;
11384;SDS011;5747;56.748;13.882;2024-01-06T05:17:02;1.67;;;1.13;;
11384;SDS011;5747;56.748;13.882;2024-01-06T05:19:31;0.90;;;0.53;;
11384;SDS011;5747;56.748;13.882;2024-01-06T05:21:59;1.57;;;0.97;;
11384;SDS011;5747;56.748;13.882;2024-01-06T05:24:27;0.80;;;0.73;;
11384;SDS011;5747;56.748;13.882;2024-01-06T05:26:54;0.70;;;0.70;;
11384;SDS011;5747;56.748;13.882;2024-01-06T05:29:22;1.10;;;0.47;;
11384;SDS011;5747;56.748;13.882;2024-01-06T05:31:52;1.57;;;0.90;;
11384;SDS011;5747;56.748;13.882;2024-01-06T05:34:21;1.50;;;0.67;;
11384;SDS011;5747;56.748;13.882;2024-01-06T05:36:50;0.50;;;0.50;;
11384;SDS011;5747;56.748;13.882;2024-01-06T05:39:18;1.80;;;1.00;;
11384;SDS011;5747;56.748;13.882;2024-01-06T05:41:46;0.50;;;0.50;;
11384;SDS011;5747;56.748;13.882;2024-01-06T05:44:14;6.13;;;1.57;;
11384;SDS011;5747;56.748;13.882;2024-01-06T05:46:42;2.67;;;0.80;;
11384;SDS011;5747;56.748;13.882;2024-01-06T05:49:10;0.63;;;0.63;;
11384;SDS011;5747;56.748;13.882;2024-01-06T05:51:44;3.70;;;1.07;;
11384;SDS011;5747;56.748;13.882;2024-01-06T05:54:13;2.83;;;0.90;;
11384;SDS011;5747;56.748;13.882;2024-01-06T05:56:41;0.83;;;0.83;;
11384;SDS011;5747;56.748;13.882;2024-01-06T05:59:09;3.10;;;1.20;;
11384;SDS011;5747;56.748;13.882;2024-01-06T06:01:37;4.83;;;1.43;;
11384;SDS011;5747;56.748;13.882;2024-01-06T06:04:06;2.17;;;1.13;;
11384;SDS011;5747;56.748;13.882;2024-01-06T06:06:35;1.37;;;0.97;;
11384;SDS011;5747;56.748;13.882;2024-01-06T06:09:05;1.73;;;0.93;;
11384;SDS011;5747;56.748;13.882;2024-01-06T06:11:33;1.97;;;1.10;;
11384;SDS011;5747;56.748;13.882;2024-01-06T06:14:02;2.27;;;1.40;;
11384;SDS011;5747;56.748;13.882;2024-01-06T06:16:31;1.70;;;1.00;;
11384;SDS011;5747;56.748;13.882;2024-01-06T06:18:59;1.80;;;1.13;;
11384;SDS011;5747;56.748;13.882;2024-01-06T06:21:27;0.77;;;0.57;;
11384;SDS011;5747;56.748;13.882;2024-01-06T06:23:56;3.20;;;1.23;;
11384;SDS011;5747;56.748;13.882;2024-01-06T06:26:25;2.77;;;1.17;;
11384;SDS011;5747;56.748;13.882;2024-01-06T06:28:53;1.40;;;1.27;;
11384;SDS011;5747;56.748;13.882;2024-01-06T06:31:21;2.57;;;1.13;;
11384;SDS011;5747;56.748;13.882;2024-01-06T06:33:50;2.60;;;1.30;;
11384;SDS011;5747;56.748;13.882;2024-01-06T06:36:18;3.50;;;2.10;;
11384;SDS011;5747;56.748;13.882;2024-01-06T06:38:46;3.17;;;1.63;;
11384;SDS011;5747;56.748;13.882;2024-01-06T06:41:14;2.47;;;1.50;;
11384;SDS011;5747;56.748;13.882;2024-01-06T06:43:44;3.00;;;1.13;;
11384;SDS011;5747;56.748;13.882;2024-01-06T06:46:12;4.27;;;1.57;;
11384;SDS011;5747;56.748;13.882;2024-01-06T06:48:41;3.27;;;1.17;;
11384;SDS011;5747;56.748;13.882;2024-01-06T06:51:09;1.77;;;1.20;;
11384;SDS011;5747;56.748;13.882;2024-01-06T06:53:38;1.30;;;0.97;;
11384;SDS011;5747;56.748;13.882;2024-01-06T06:56:07;0.70;;;0.50;;
11384;SDS011;5747;56.748;13.882;2024-01-06T06:58:35;2.97;;;1.37;;
11384;SDS011;5747;56.748;13.882;2024-01-06T07:01:04;3.20;;;1.33;;
11384;SDS011;5747;56.748;13.882;2024-01-06T07:03:33;0.77;;;0.70;;
11384;SDS011;5747;56.748;13.882;2024-01-06T07:06:01;2.43;;;1.30;;
11384;SDS011;5747;56.748;13.882;2024-01-06T07:08:29;8.40;;;1.57;;
11384;SDS011;5747;56.748;13.882;2024-01-06T07:10:57;1.77;;;1.00;;
11384;SDS011;5747;56.748;13.882;2024-01-06T07:13:25;1.73;;;0.73;;
11384;SDS011;5747;56.748;13.882;2024-01-06T07:15:53;0.63;;;0.63;;
11384;SDS011;5747;56.748;13.882;2024-01-06T07:18:41;0.10;;;0.10;;
11384;SDS011;5747;56.748;13.882;2024-01-06T07:21:11;2.60;;;0.60;;
11384;SDS011;5747;56.748;13.882;2024-01-06T07:23:40;0.67;;;0.67;;
11384;SDS011;5747;56.748;13.882;2024-01-06T07:26:09;1.17;;;0.53;;
11384;SDS011;5747;56.748;13.882;2024-01-06T07:28:37;0.60;;;0.60;;
11384;SDS011;5747;56.748;13.882;2024-01-06T07:31:05;2.63;;;1.43;;
11384;SDS011;5747;56.748;13.882;2024-01-06T07:33:33;0.20;;;0.20;;
11384;SDS011;5747;56.748;13.882;2024-01-06T07:36:03;3.10;;;1.10;;
11384;SDS011;5747;56.748;13.882;2024-01-06T07:38:32;1.23;;;0.43;;
11384;SDS011;5747;56.748;13.882;2024-01-06T07:41:00;2.90;;;1.60;;
11384;SDS011;5747;56.748;13.882;2024-01-06T07:43:28;0.40;;;0.40;;
11384;SDS011;5747;56.748;13.882;2024-01-06T07:45:56;0.60;;;0.60;;
11384;SDS011;5747;56.748;13.882;2024-01-06T07:48:24;0.10;;;0.10;;
11384;SDS011;5747;56.748;13.882;2024-01-06T07:50:53;0.10;;;0.10;;
11384;SDS011;5747;56.748;13.882;2024-01-06T07:53:22;0.20;;;0.20;;
11384;SDS011;5747;56.748;13.882;2024-01-06T07:55:51;0.93;;;0.60;;
11384;SDS011;5747;56.748;13.882;2024-01-06T07:58:19;2.73;;;1.33;;
11384;SDS011;5747;56.748;13.882;2024-01-06T08:00:48;3.03;;;1.00;;
11384;SDS011;5747;56.748;13.882;2024-01-06T08:03:16;0.40;;;0.37;;
11384;SDS011;5747;56.748;13.882;2024-01-06T08:05:44;0.47;;;0.43;;
11384;SDS011;5747;56.748;13.882;2024-01-06T08:08:13;1.20;;;0.70;;
11384;SDS011;5747;56.748;13.882;2024-01-06T08:10:44;1.63;;;1.53;;
11384;SDS011;5747;56.748;13.882;2024-01-06T08:13:13;4.50;;;1.60;;
11384;SDS011;5747;56.748;13.882;2024-01-06T08:15:41;2.27;;;1.17;;
11384;SDS011;5747;56.748;13.882;2024-01-06T08:18:09;1.53;;;0.60;;
11384;SDS011;5747;56.748;13.882;2024-01-06T08:20:38;0.00;;;0.00;;
11384;SDS011;5747;56.748;13.882;2024-01-06T08:23:06;0.23;;;0.23;;
11384;SDS011;5747;56.748;13.882;2024-01-06T08:25:34;0.00;;;0.00;;
11384;SDS011;5747;56.748;13.882;2024-01-06T08:28:04;0.90;;;0.90;;
11384;SDS011;5747;56.748;13.882;2024-01-06T08:30:32;0.00;;;0.00;;
11384;SDS011;5747;56.748;13.882;2024-01-06T08:33:01;0.17;;;0.17;;
11384;SDS011;5747;56.748;13.882;2024-01-06T08:35:29;0.00;;;0.00;;
11384;SDS011;5747;56.748;13.882;2024-01-06T08:37:58;0.67;;;0.40;;
11384;SDS011;5747;56.748;13.882;2024-01-06T08:40:26;0.57;;;0.57;;
11384;SDS011;5747;56.748;13.882;2024-01-06T08:42:54;0.40;;;0.40;;
11384;SDS011;5747;56.748;13.882;2024-01-06T08:45:23;0.10;;;0.10;;
11384;SDS011;5747;56.748;13.882;2024-01-06T08:47:51;0.90;;;0.90;;
11384;SDS011;5747;56.748;13.882;2024-01-06T08:50:20;1.73;;;1.40;;
11384;SDS011;5747;56.748;13.882;2024-01-06T08:52:48;0.57;;;0.57;;
11384;SDS011;5747;56.748;13.882;2024-01-06T08:55:16;2.47;;;1.57;;
11384;SDS011;5747;56.748;13.882;2024-01-06T08:57:44;1.80;;;1.63;;
11384;SDS011;5747;56.748;13.882;2024-01-06T09:00:13;2.77;;;1.83;;
11384;SDS011;5747;56.748;13.882;2024-01-06T09:02:43;1.43;;;1.33;;
11384;SDS011;5747;56.748;13.882;2024-01-06T09:05:12;2.73;;;1.73;;
11384;SDS011;5747;56.748;13.882;2024-01-06T09:07:40;2.43;;;1.40;;
11384;SDS011;5747;56.748;13.882;2024-01-06T09:10:08;3.23;;;1.77;;
11384;SDS011;5747;56.748;13.882;2024-01-06T09:12:36;3.67;;;2.73;;
11384;SDS011;5747;56.748;13.882;2024-01-06T09:15:05;2.67;;;1.73;;
11384;SDS011;5747;56.748;13.882;2024-01-06T09:17:34;4.03;;;1.87;;
11384;SDS011;5747;56.748;13.882;2024-01-06T09:20:04;2.37;;;1.60;;
11384;SDS011;5747;56.748;13.882;2024-01-06T09:22:32;4.63;;;2.13;;
11384;SDS011;5747;56.748;13.882;2024-01-06T09:25:00;2.97;;;1.80;;
11384;SDS011;5747;56.748;13.882;2024-01-06T09:27:29;3.07;;;1.77;;
11384;SDS011;5747;56.748;13.882;2024-01-06T09:29:57;7.33;;;1.90;;
11384;SDS011;5747;56.748;13.882;2024-01-06T09:32:25;2.90;;;1.83;;
11384;SDS011;5747;56.748;13.882;2024-01-06T09:34:53;5.27;;;1.77;;
11384;SDS011;5747;56.748;13.882;2024-01-06T09:37:23;4.30;;;1.80;;
11384;SDS011;5747;56.748;13.882;2024-01-06T09:39:51;3.23;;;1.70;;
11384;SDS011;5747;56.748;13.882;2024-01-06T09:42:19;6.00;;;2.07;;
11384;SDS011;5747;56.748;13.882;2024-01-06T09:44:48;2.67;;;1.40;;
11384;SDS011;5747;56.748;13.882;2024-01-06T09:47:16;3.77;;;1.60;;
11384;SDS011;5747;56.748;13.882;2024-01-06T09:49:47;3.10;;;1.73;;
11384;SDS011;5747;56.748;13.882;2024-01-06T09:52:19;1.93;;;1.47;;
11384;SDS011;5747;56.748;13.882;2024-01-06T09:54:52;5.87;;;2.37;;
11384;SDS011;5747;56.748;13.882;2024-01-06T09:57:22;6.87;;;3.10;;
11384;SDS011;5747;56.748;13.882;2024-01-06T09:59:51;7.77;;;2.93;;
11384;SDS011;5747;56.748;13.882;2024-01-06T10:02:19;10.00;;;3.07;;
11384;SDS011;5747;56.748;13.882;2024-01-06T10:04:49;8.73;;;3.27;;
11384;SDS011;5747;56.748;13.882;2024-01-06T10:07:17;13.33;;;4.33;;
11384;SDS011;5747;56.748;13.882;2024-01-06T10:09:46;18.37;;;5.63;;
11384;SDS011;5747;56.748;13.882;2024-01-06T10:12:15;11.10;;;4.80;;
11384;SDS011;5747;56.748;13.882;2024-01-06T10:14:43;7.00;;;2.87;;
11384;SDS011;5747;56.748;13.882;2024-01-06T10:17:11;7.30;;;3.07;;
11384;SDS011;5747;56.748;13.882;2024-01-06T10:19:41;8.20;;;3.43;;
11384;SDS011;5747;56.748;13.882;2024-01-06T10:22:12;12.33;;;4.33;;
11384;SDS011;5747;56.748;13.882;2024-01-06T10:24:40;13.10;;;4.63;;
11384;SDS011;5747;56.748;13.882;2024-01-06T10:27:08;9.30;;;3.83;;
11384;SDS011;5747;56.748;13.882;2024-01-06T10:29:38;7.53;;;3.60;;
11384;SDS011;5747;56.748;13.882;2024-01-06T10:32:06;4.23;;;2.57;;
11384;SDS011;5747;56.748;13.882;2024-01-06T10:34:34;3.27;;;2.17;;
11384;SDS011;5747;56.748;13.882;2024-01-06T10:37:03;3.50;;;2.10;;
11384;SDS011;5747;56.748;13.882;2024-01-06T10:39:33;3.33;;;2.07;;
11384;SDS011;5747;56.748;13.882;2024-01-06T10:42:04;4.37;;;2.33;;
11384;SDS011;5747;56.748;13.882;2024-01-06T10:44:34;4.83;;;2.07;;
11384;SDS011;5747;56.748;13.882;2024-01-06T10:47:05;4.67;;;2.13;;
11384;SDS011;5747;56.748;13.882;2024-01-06T10:49:33;5.37;;;2.30;;
11384;SDS011;5747;56.748;13.882;2024-01-06T10:52:03;3.33;;;2.47;;
11384;SDS011;5747;56.748;13.882;2024-01-06T10:54:33;3.73;;;2.40;;
11384;SDS011;5747;56.748;13.882;2024-01-06T10:57:03;9.30;;;2.50;;
11384;SDS011;5747;56.748;13.882;2024-01-06T10:59:33;3.37;;;2.10;;
11384;SDS011;5747;56.748;13.882;2024-01-06T11:02:05;3.20;;;2.10;;
11384;SDS011;5747;56.748;13.882;2024-01-06T11:04:34;5.77;;;2.23;;
11384;SDS011;5747;56.748;13.882;2024-01-06T11:07:03;6.03;;;3.63;;
11384;SDS011;5747;56.748;13.882;2024-01-06T11:09:33;5.83;;;2.87;;
11384;SDS011;5747;56.748;13.882;2024-01-06T11:12:07;3.30;;;2.00;;
11384;SDS011;5747;56.748;13.882;2024-01-06T11:14:36;2.60;;;1.70;;
11384;SDS011;5747;56.748;13.882;2024-01-06T11:17:06;3.13;;;1.77;;
11384;SDS011;5747;56.748;13.882;2024-01-06T11:19:42;2.00;;;1.40;;
11384;SDS011;5747;56.748;13.882;2024-01-06T11:22:19;2.10;;;1.30;;
11384;SDS011;5747;56.748;13.882;2024-01-06T11:24:48;2.90;;;1.63;;
11384;SDS011;5747;56.748;13.882;2024-01-06T11:27:17;3.93;;;1.70;;
11384;SDS011;5747;56.748;13.882;2024-01-06T11:29:46;7.50;;;2.17;;
11384;SDS011;5747;56.748;13.882;2024-01-06T11:32:19;2.23;;;1.40;;
11384;SDS011;5747;56.748;13.882;2024-01-06T11:34:52;1.37;;;1.13;;
11384;SDS011;5747;56.748;13.882;2024-01-06T11:37:28;1.30;;;0.83;;
11384;SDS011;5747;56.748;13.882;2024-01-06T11:40:04;3.60;;;1.70;;
11384;SDS011;5747;56.748;13.882;2024-01-06T11:42:36;4.03;;;1.90;;
11384;SDS011;5747;56.748;13.882;2024-01-06T11:45:05;2.17;;;1.20;;
11384;SDS011;5747;56.748;13.882;2024-01-06T11:47:35;1.40;;;0.80;;
11384;SDS011;5747;56.748;13.882;2024-01-06T11:50:03;1.23;;;0.83;;
11384;SDS011;5747;56.748;13.882;2024-01-06T11:52:32;1.47;;;1.10;;
11384;SDS011;5747;56.748;13.882;2024-01-06T11:55:01;1.43;;;1.10;;
11384;SDS011;5747;56.748;13.882;2024-01-06T11:57:30;1.80;;;1.00;;
11384;SDS011;5747;56.748;13.882;2024-01-06T11:59:58;1.83;;;1.13;;
11384;SDS011;5747;56.748;13.882;2024-01-06T12:02:26;4.27;;;1.10;;
11384;SDS011;5747;56.748;13.882;2024-01-06T12:04:56;12.53;;;4.10;;
11384;SDS011;5747;56.748;13.882;2024-01-06T12:07:24;2.47;;;1.00;;
11384;SDS011;5747;56.748;13.882;2024-01-06T12:10:00;2.27;;;1.13;;
11384;SDS011;5747;56.748;13.882;2024-01-06T12:12:29;2.20;;;1.17;;
11384;SDS011;5747;56.748;13.882;2024-01-06T12:14:57;3.60;;;0.97;;
11384;SDS011;5747;56.748;13.882;2024-01-06T12:17:27;1.23;;;0.83;;
11384;SDS011;5747;56.748;13.882;2024-01-06T12:19:58;1.00;;;0.90;;
11384;SDS011;5747;56.748;13.882;2024-01-06T12:22:27;2.50;;;1.40;;
11384;SDS011;5747;56.748;13.882;2024-01-06T12:24:55;2.30;;;1.20;;
11384;SDS011;5747;56.748;13.882;2024-01-06T12:27:26;2.37;;;1.13;;
11384;SDS011;5747;56.748;13.882;2024-01-06T12:29:54;2.17;;;1.00;;
11384;SDS011;5747;56.748;13.882;2024-01-06T12:32:22;1.73;;;1.13;;
11384;SDS011;5747;56.748;13.882;2024-01-06T12:34:51;1.83;;;1.30;;
11384;SDS011;5747;56.748;13.882;2024-01-06T12:37:21;2.00;;;1.10;;
11384;SDS011;5747;56.748;13.882;2024-01-06T12:39:50;1.80;;;1.20;;
11384;SDS011;5747;56.748;13.882;2024-01-06T12:42:18;1.77;;;1.40;;
11384;SDS011;5747;56.748;13.882;2024-01-06T12:44:48;1.30;;;0.93;;
11384;SDS011;5747;56.748;13.882;2024-01-06T12:47:16;1.20;;;1.07;;
11384;SDS011;5747;56.748;13.882;2024-01-06T12:49:44;1.60;;;1.17;;
11384;SDS011;5747;56.748;13.882;2024-01-06T12:52:13;1.50;;;1.20;;
11384;SDS011;5747;56.748;13.882;2024-01-06T12:54:42;1.67;;;1.10;;
11384;SDS011;5747;56.748;13.882;2024-01-06T12:57:13;1.03;;;0.93;;
11384;SDS011;5747;56.748;13.882;2024-01-06T12:59:41;1.77;;;1.40;;
11384;SDS011;5747;56.748;13.882;2024-01-06T13:02:09;2.77;;;1.33;;
11384;SDS011;5747;56.748;13.882;2024-01-06T13:04:37;2.60;;;1.10;;
11384;SDS011;5747;56.748;13.882;2024-01-06T13:07:06;2.80;;;1.50;;
11384;SDS011;5747;56.748;13.882;2024-01-06T13:09:34;1.93;;;1.20;;
11384;SDS011;5747;56.748;13.882;2024-01-06T13:12:04;1.87;;;1.17;;
11384;SDS011;5747;56.748;13.882;2024-01-06T13:14:33;1.47;;;1.03;;
11384;SDS011;5747;56.748;13.882;2024-01-06T13:17:02;2.47;;;1.60;;
11384;SDS011;5747;56.748;13.882;2024-01-06T13:19:31;4.17;;;1.30;;
11384;SDS011;5747;56.748;13.882;2024-01-06T13:22:00;1.83;;;1.13;;
11384;SDS011;5747;56.748;13.882;2024-01-06T13:24:28;1.63;;;1.10;;
11384;SDS011;5747;56.748;13.882;2024-01-06T13:26:57;1.47;;;0.97;;
11384;SDS011;5747;56.748;13.882;2024-01-06T13:29:26;1.67;;;0.90;;
11384;SDS011;5747;56.748;13.882;2024-01-06T13:31:55;1.40;;;1.10;;
11384;SDS011;5747;56.748;13.882;2024-01-06T13:34:24;1.03;;;0.90;;
11384;SDS011;5747;56.748;13.882;2024-01-06T13:36:52;3.67;;;1.27;;
11384;SDS011;5747;56.748;13.882;2024-01-06T13:39:23;1.70;;;1.20;;
11384;SDS011;5747;56.748;13.882;2024-01-06T13:41:51;2.30;;;1.40;;
11384;SDS011;5747;56.748;13.882;2024-01-06T13:44:19;1.97;;;1.20;;
11384;SDS011;5747;56.748;13.882;2024-01-06T13:46:50;1.70;;;1.20;;
11384;SDS011;5747;56.748;13.882;2024-01-06T13:49:21;1.83;;;1.20;;
11384;SDS011;5747;56.748;13.882;2024-01-06T13:51:50;2.53;;;1.10;;
11384;SDS011;5747;56.748;13.882;2024-01-06T13:54:18;1.97;;;1.13;;
11384;SDS011;5747;56.748;13.882;2024-01-06T13:56:46;1.73;;;1.47;;
11384;SDS011;5747;56.748;13.882;2024-01-06T13:59:14;2.67;;;1.40;;
11384;SDS011;5747;56.748;13.882;2024-01-06T14:01:43;2.17;;;1.10;;
11384;SDS011;5747;56.748;13.882;2024-01-06T14:04:12;2.77;;;1.30;;
11384;SDS011;5747;56.748;13.882;2024-01-06T14:06:41;2.27;;;1.17;;
11384;SDS011;5747;56.748;13.882;2024-01-06T14:09:09;2.53;;;1.23;;
11384;SDS011;5747;56.748;13.882;2024-01-06T14:11:38;1.70;;;1.27;;
11384;SDS011;5747;56.748;13.882;2024-01-06T14:14:06;3.00;;;1.33;;
11384;SDS011;5747;56.748;13.882;2024-01-06T14:16:35;1.90;;;1.20;;
11384;SDS011;5747;56.748;13.882;2024-01-06T14:19:04;1.77;;;1.30;;
11384;SDS011;5747;56.748;13.882;2024-01-06T14:21:33;1.30;;;1.20;;
11384;SDS011;5747;56.748;13.882;2024-01-06T14:24:01;2.77;;;1.50;;
11384;SDS011;5747;56.748;13.882;2024-01-06T14:26:30;2.10;;;1.20;;
11384;SDS011;5747;56.748;13.882;2024-01-06T14:28:58;1.93;;;1.30;;
11384;SDS011;5747;56.748;13.882;2024-01-06T14:31:26;3.17;;;1.30;;
11384;SDS011;5747;56.748;13.882;2024-01-06T14:33:55;1.20;;;1.10;;
11384;SDS011;5747;56.748;13.882;2024-01-06T14:36:26;1.57;;;1.20;;
11384;SDS011;5747;56.748;13.882;2024-01-06T14:38:55;2.30;;;1.57;;
11384;SDS011;5747;56.748;13.882;2024-01-06T14:41:23;1.93;;;1.20;;
11384;SDS011;5747;56.748;13.882;2024-01-06T14:43:51;1.67;;;1.10;;
11384;SDS011;5747;56.748;13.882;2024-01-06T14:46:22;2.23;;;1.30;;
11384;SDS011;5747;56.748;13.882;2024-01-06T14:48:50;2.33;;;1.33;;
11384;SDS011;5747;56.748;13.882;2024-01-06T14:51:19;2.20;;;1.30;;
11384;SDS011;5747;56.748;13.882;2024-01-06T14:53:47;2.60;;;1.43;;
11384;SDS011;5747;56.748;13.882;2024-01-06T14:56:16;2.60;;;1.23;;